sensor_id;sensor_type;location;lat;lon;timestamp;P1;durP1;ratioP1;P2;durP2;ratioP2
46266;SDS011;31998;48.798;15.066;2023-06-10T00:01:23;11.80;;;10.90;;
46266;SDS011;31998;48.798;15.066;2023-06-10T00:03:49;10.23;;;9.50;;
46266;SDS011;31998;48.798;15.066;2023-06-10T00:06:15;14.50;;;9.83;;
46266;SDS011;31998;48.798;15.066;2023-06-10T00:08:40;10.47;;;9.47;;
46266;SDS011;31998;48.798;15.066;2023-06-10T00:11:05;12.33;;;9.93;;
46266;SDS011;31998;48.798;15.066;2023-06-10T00:13:31;9.50;;;8.70;;
46266;SDS011;31998;48.798;15.066;2023-06-10T00:15:56;9.70;;;8.97;;
46266;SDS011;31998;48.798;15.066;2023-06-10T00:18:21;10.80;;;9.80;;
46266;SDS011;31998;48.798;15.066;2023-06-10T00:20:47;9.80;;;9.17;;
46266;SDS011;31998;48.798;15.066;2023-06-10T00:23:13;10.90;;;10.00;;
46266;SDS011;31998;48.798;15.066;2023-06-10T00:25:39;10.63;;;8.87;;
46266;SDS011;31998;48.798;15.066;2023-06-10T00:28:04;12.03;;;11.13;;
46266;SDS011;31998;48.798;15.066;2023-06-10T00:30:30;13.70;;;11.67;;
46266;SDS011;31998;48.798;15.066;2023-06-10T00:32:55;10.20;;;9.30;;
46266;SDS011;31998;48.798;15.066;2023-06-10T00:35:20;13.07;;;11.87;;
46266;SDS011;31998;48.798;15.066;2023-06-10T00:37:46;14.73;;;13.43;;
46266;SDS011;31998;48.798;15.066;2023-06-10T00:40:11;21.03;;;18.00;;
46266;SDS011;31998;48.798;15.066;2023-06-10T00:42:37;21.73;;;18.27;;
46266;SDS011;31998;48.798;15.066;2023-06-10T00:45:02;24.50;;;19.60;;
46266;SDS011;31998;48.798;15.066;2023-06-10T00:47:27;28.33;;;20.70;;
46266;SDS011;31998;48.798;15.066;2023-06-10T00:49:53;30.53;;;21.60;;
46266;SDS011;31998;48.798;15.066;2023-06-10T00:52:19;36.10;;;21.80;;
46266;SDS011;31998;48.798;15.066;2023-06-10T00:54:46;33.37;;;22.87;;
46266;SDS011;31998;48.798;15.066;2023-06-10T00:57:12;32.60;;;23.77;;
46266;SDS011;31998;48.798;15.066;2023-06-10T00:59:38;30.17;;;21.60;;
46266;SDS011;31998;48.798;15.066;2023-06-10T01:02:03;47.43;;;24.33;;
46266;SDS011;31998;48.798;15.066;2023-06-10T01:04:28;32.37;;;20.63;;
46266;SDS011;31998;48.798;15.066;2023-06-10T01:07:00;42.97;;;25.63;;
46266;SDS011;31998;48.798;15.066;2023-06-10T01:09:45;48.57;;;25.17;;
46266;SDS011;31998;48.798;15.066;2023-06-10T01:12:24;60.47;;;25.40;;
46266;SDS011;31998;48.798;15.066;2023-06-10T01:14:51;42.90;;;25.73;;
46266;SDS011;31998;48.798;15.066;2023-06-10T01:17:17;64.37;;;25.23;;
46266;SDS011;31998;48.798;15.066;2023-06-10T01:19:43;48.43;;;27.50;;
46266;SDS011;31998;48.798;15.066;2023-06-10T01:22:09;60.10;;;27.73;;
46266;SDS011;31998;48.798;15.066;2023-06-10T01:24:35;37.40;;;25.03;;
46266;SDS011;31998;48.798;15.066;2023-06-10T01:27:01;36.60;;;26.23;;
46266;SDS011;31998;48.798;15.066;2023-06-10T01:29:33;40.30;;;25.53;;
46266;SDS011;31998;48.798;15.066;2023-06-10T01:32:13;48.07;;;25.93;;
46266;SDS011;31998;48.798;15.066;2023-06-10T01:34:39;41.33;;;25.73;;
46266;SDS011;31998;48.798;15.066;2023-06-10T01:37:06;38.43;;;25.63;;
46266;SDS011;31998;48.798;15.066;2023-06-10T01:39:33;41.37;;;27.20;;
46266;SDS011;31998;48.798;15.066;2023-06-10T01:41:59;46.53;;;26.10;;
46266;SDS011;31998;48.798;15.066;2023-06-10T01:44:25;41.93;;;25.60;;
46266;SDS011;31998;48.798;15.066;2023-06-10T01:46:50;51.93;;;26.57;;
46266;SDS011;31998;48.798;15.066;2023-06-10T01:49:15;54.20;;;26.90;;
46266;SDS011;31998;48.798;15.066;2023-06-10T01:51:41;63.43;;;26.40;;
46266;SDS011;31998;48.798;15.066;2023-06-10T01:54:06;69.43;;;26.60;;
46266;SDS011;31998;48.798;15.066;2023-06-10T01:56:32;79.70;;;28.10;;
46266;SDS011;31998;48.798;15.066;2023-06-10T01:58:57;50.77;;;28.17;;
46266;SDS011;31998;48.798;15.066;2023-06-10T02:01:24;33.77;;;24.50;;
46266;SDS011;31998;48.798;15.066;2023-06-10T02:03:49;49.67;;;26.33;;
46266;SDS011;31998;48.798;15.066;2023-06-10T02:06:14;77.87;;;27.30;;
46266;SDS011;31998;48.798;15.066;2023-06-10T02:08:40;90.90;;;27.60;;
46266;SDS011;31998;48.798;15.066;2023-06-10T02:11:05;92.37;;;28.70;;
46266;SDS011;31998;48.798;15.066;2023-06-10T02:13:32;122.50;;;30.40;;
46266;SDS011;31998;48.798;15.066;2023-06-10T02:15:57;116.60;;;31.83;;
46266;SDS011;31998;48.798;15.066;2023-06-10T02:18:22;215.37;;;32.57;;
46266;SDS011;31998;48.798;15.066;2023-06-10T02:20:47;239.27;;;33.70;;
46266;SDS011;31998;48.798;15.066;2023-06-10T02:23:13;204.23;;;33.37;;
46266;SDS011;31998;48.798;15.066;2023-06-10T02:25:38;211.20;;;34.67;;
46266;SDS011;31998;48.798;15.066;2023-06-10T02:28:04;257.90;;;35.70;;
46266;SDS011;31998;48.798;15.066;2023-06-10T02:30:29;223.53;;;38.83;;
46266;SDS011;31998;48.798;15.066;2023-06-10T02:32:54;170.67;;;34.30;;
46266;SDS011;31998;48.798;15.066;2023-06-10T02:35:21;72.63;;;31.47;;
46266;SDS011;31998;48.798;15.066;2023-06-10T02:37:49;175.60;;;32.50;;
46266;SDS011;31998;48.798;15.066;2023-06-10T02:40:14;173.73;;;33.13;;
46266;SDS011;31998;48.798;15.066;2023-06-10T02:42:39;77.03;;;30.03;;
46266;SDS011;31998;48.798;15.066;2023-06-10T02:45:04;82.30;;;30.30;;
46266;SDS011;31998;48.798;15.066;2023-06-10T02:47:30;110.60;;;31.50;;
46266;SDS011;31998;48.798;15.066;2023-06-10T02:49:55;98.07;;;31.37;;
46266;SDS011;31998;48.798;15.066;2023-06-10T02:52:21;77.13;;;30.00;;
46266;SDS011;31998;48.798;15.066;2023-06-10T02:54:46;105.67;;;31.83;;
46266;SDS011;31998;48.798;15.066;2023-06-10T02:57:12;92.63;;;32.67;;
46266;SDS011;31998;48.798;15.066;2023-06-10T02:59:39;167.87;;;36.40;;
46266;SDS011;31998;48.798;15.066;2023-06-10T03:02:05;107.53;;;32.87;;
46266;SDS011;31998;48.798;15.066;2023-06-10T03:04:30;81.67;;;31.10;;
46266;SDS011;31998;48.798;15.066;2023-06-10T03:06:55;193.63;;;35.60;;
46266;SDS011;31998;48.798;15.066;2023-06-10T03:09:21;67.07;;;30.37;;
46266;SDS011;31998;48.798;15.066;2023-06-10T03:11:46;58.53;;;29.33;;
46266;SDS011;31998;48.798;15.066;2023-06-10T03:14:11;58.50;;;28.30;;
46266;SDS011;31998;48.798;15.066;2023-06-10T03:16:36;47.70;;;25.80;;
46266;SDS011;31998;48.798;15.066;2023-06-10T03:19:05;65.63;;;27.70;;
46266;SDS011;31998;48.798;15.066;2023-06-10T03:21:31;56.70;;;29.50;;
46266;SDS011;31998;48.798;15.066;2023-06-10T03:23:56;60.83;;;26.63;;
46266;SDS011;31998;48.798;15.066;2023-06-10T03:26:21;66.63;;;28.80;;
46266;SDS011;31998;48.798;15.066;2023-06-10T03:28:47;72.10;;;29.07;;
46266;SDS011;31998;48.798;15.066;2023-06-10T03:31:12;60.10;;;31.53;;
46266;SDS011;31998;48.798;15.066;2023-06-10T03:33:37;58.03;;;29.67;;
46266;SDS011;31998;48.798;15.066;2023-06-10T03:36:04;72.53;;;28.23;;
46266;SDS011;31998;48.798;15.066;2023-06-10T03:38:29;51.50;;;27.87;;
46266;SDS011;31998;48.798;15.066;2023-06-10T03:40:54;47.30;;;25.93;;
46266;SDS011;31998;48.798;15.066;2023-06-10T03:43:19;41.10;;;25.47;;
46266;SDS011;31998;48.798;15.066;2023-06-10T03:45:45;35.80;;;24.50;;
46266;SDS011;31998;48.798;15.066;2023-06-10T03:48:11;38.40;;;24.37;;
46266;SDS011;31998;48.798;15.066;2023-06-10T03:50:36;34.73;;;23.67;;
46266;SDS011;31998;48.798;15.066;2023-06-10T03:53:02;25.87;;;21.87;;
46266;SDS011;31998;48.798;15.066;2023-06-10T03:55:27;31.00;;;23.73;;
46266;SDS011;31998;48.798;15.066;2023-06-10T03:57:52;27.80;;;22.70;;
46266;SDS011;31998;48.798;15.066;2023-06-10T04:00:18;30.93;;;22.87;;
46266;SDS011;31998;48.798;15.066;2023-06-10T04:02:46;32.30;;;23.30;;
46266;SDS011;31998;48.798;15.066;2023-06-10T04:05:13;40.00;;;23.50;;
46266;SDS011;31998;48.798;15.066;2023-06-10T04:07:39;36.07;;;23.43;;
46266;SDS011;31998;48.798;15.066;2023-06-10T04:10:06;34.90;;;24.40;;
46266;SDS011;31998;48.798;15.066;2023-06-10T04:12:31;36.73;;;24.07;;
46266;SDS011;31998;48.798;15.066;2023-06-10T04:14:56;36.50;;;22.97;;
46266;SDS011;31998;48.798;15.066;2023-06-10T04:17:21;33.53;;;23.87;;
46266;SDS011;31998;48.798;15.066;2023-06-10T04:19:47;48.90;;;23.97;;
46266;SDS011;31998;48.798;15.066;2023-06-10T04:22:12;28.43;;;22.17;;
46266;SDS011;31998;48.798;15.066;2023-06-10T04:24:37;31.17;;;22.67;;
46266;SDS011;31998;48.798;15.066;2023-06-10T04:27:02;35.50;;;23.67;;
46266;SDS011;31998;48.798;15.066;2023-06-10T04:29:28;34.60;;;24.00;;
46266;SDS011;31998;48.798;15.066;2023-06-10T04:31:53;30.27;;;23.37;;
46266;SDS011;31998;48.798;15.066;2023-06-10T04:34:18;31.80;;;22.87;;
46266;SDS011;31998;48.798;15.066;2023-06-10T04:36:43;28.43;;;22.57;;
46266;SDS011;31998;48.798;15.066;2023-06-10T04:39:09;26.47;;;21.43;;
46266;SDS011;31998;48.798;15.066;2023-06-10T04:41:34;24.13;;;21.50;;
46266;SDS011;31998;48.798;15.066;2023-06-10T04:43:59;24.27;;;21.63;;
46266;SDS011;31998;48.798;15.066;2023-06-10T04:46:24;24.40;;;20.50;;
46266;SDS011;31998;48.798;15.066;2023-06-10T04:48:50;23.13;;;20.63;;
46266;SDS011;31998;48.798;15.066;2023-06-10T04:51:15;24.73;;;21.37;;
46266;SDS011;31998;48.798;15.066;2023-06-10T04:53:41;23.70;;;21.17;;
46266;SDS011;31998;48.798;15.066;2023-06-10T04:56:07;22.10;;;19.80;;
46266;SDS011;31998;48.798;15.066;2023-06-10T04:58:32;21.63;;;19.37;;
46266;SDS011;31998;48.798;15.066;2023-06-10T05:00:58;23.10;;;19.97;;
46266;SDS011;31998;48.798;15.066;2023-06-10T05:03:23;19.57;;;17.77;;
46266;SDS011;31998;48.798;15.066;2023-06-10T05:05:48;32.87;;;20.40;;
46266;SDS011;31998;48.798;15.066;2023-06-10T05:08:13;25.87;;;21.10;;
46266;SDS011;31998;48.798;15.066;2023-06-10T05:10:39;21.67;;;18.87;;
46266;SDS011;31998;48.798;15.066;2023-06-10T05:13:04;23.73;;;18.47;;
46266;SDS011;31998;48.798;15.066;2023-06-10T05:15:29;21.63;;;19.30;;
46266;SDS011;31998;48.798;15.066;2023-06-10T05:17:56;20.57;;;18.53;;
46266;SDS011;31998;48.798;15.066;2023-06-10T05:20:22;20.73;;;18.73;;
46266;SDS011;31998;48.798;15.066;2023-06-10T05:22:47;19.97;;;17.97;;
46266;SDS011;31998;48.798;15.066;2023-06-10T05:25:12;20.47;;;18.30;;
46266;SDS011;31998;48.798;15.066;2023-06-10T05:27:37;18.77;;;17.10;;
46266;SDS011;31998;48.798;15.066;2023-06-10T05:30:04;18.07;;;16.37;;
46266;SDS011;31998;48.798;15.066;2023-06-10T05:32:30;17.93;;;16.17;;
46266;SDS011;31998;48.798;15.066;2023-06-10T05:34:55;17.73;;;16.13;;
46266;SDS011;31998;48.798;15.066;2023-06-10T05:37:20;16.43;;;14.83;;
46266;SDS011;31998;48.798;15.066;2023-06-10T05:39:46;17.20;;;15.03;;
46266;SDS011;31998;48.798;15.066;2023-06-10T05:42:11;16.00;;;13.43;;
46266;SDS011;31998;48.798;15.066;2023-06-10T05:44:36;16.10;;;14.43;;
46266;SDS011;31998;48.798;15.066;2023-06-10T05:47:02;16.67;;;14.87;;
46266;SDS011;31998;48.798;15.066;2023-06-10T05:49:27;13.23;;;12.00;;
46266;SDS011;31998;48.798;15.066;2023-06-10T05:51:52;14.80;;;13.60;;
46266;SDS011;31998;48.798;15.066;2023-06-10T05:54:18;15.07;;;13.73;;
46266;SDS011;31998;48.798;15.066;2023-06-10T05:56:43;14.30;;;12.90;;
46266;SDS011;31998;48.798;15.066;2023-06-10T05:59:09;14.80;;;13.60;;
46266;SDS011;31998;48.798;15.066;2023-06-10T06:01:34;14.13;;;12.87;;
46266;SDS011;31998;48.798;15.066;2023-06-10T06:03:59;15.00;;;13.57;;
46266;SDS011;31998;48.798;15.066;2023-06-10T06:06:25;14.27;;;13.13;;
46266;SDS011;31998;48.798;15.066;2023-06-10T06:08:50;15.30;;;13.93;;
46266;SDS011;31998;48.798;15.066;2023-06-10T06:11:15;14.27;;;13.03;;
46266;SDS011;31998;48.798;15.066;2023-06-10T06:13:40;20.63;;;18.43;;
46266;SDS011;31998;48.798;15.066;2023-06-10T06:16:07;17.33;;;15.63;;
46266;SDS011;31998;48.798;15.066;2023-06-10T06:18:32;13.90;;;12.77;;
46266;SDS011;31998;48.798;15.066;2023-06-10T06:20:57;11.30;;;10.50;;
46266;SDS011;31998;48.798;15.066;2023-06-10T06:23:22;12.10;;;11.23;;
46266;SDS011;31998;48.798;15.066;2023-06-10T06:25:48;12.57;;;11.37;;
46266;SDS011;31998;48.798;15.066;2023-06-10T06:28:13;12.03;;;11.03;;
46266;SDS011;31998;48.798;15.066;2023-06-10T06:30:38;10.13;;;9.53;;
46266;SDS011;31998;48.798;15.066;2023-06-10T06:33:03;10.30;;;9.37;;
46266;SDS011;31998;48.798;15.066;2023-06-10T06:35:32;8.90;;;8.30;;
46266;SDS011;31998;48.798;15.066;2023-06-10T06:37:57;9.80;;;9.10;;
46266;SDS011;31998;48.798;15.066;2023-06-10T06:40:23;10.00;;;9.30;;
46266;SDS011;31998;48.798;15.066;2023-06-10T06:42:49;9.20;;;8.50;;
46266;SDS011;31998;48.798;15.066;2023-06-10T06:45:14;9.57;;;8.87;;
46266;SDS011;31998;48.798;15.066;2023-06-10T06:47:40;8.90;;;8.40;;
46266;SDS011;31998;48.798;15.066;2023-06-10T06:50:05;9.20;;;8.70;;
46266;SDS011;31998;48.798;15.066;2023-06-10T06:52:30;9.50;;;8.90;;
46266;SDS011;31998;48.798;15.066;2023-06-10T06:54:55;9.10;;;8.20;;
46266;SDS011;31998;48.798;15.066;2023-06-10T06:57:21;12.93;;;8.40;;
46266;SDS011;31998;48.798;15.066;2023-06-10T06:59:48;11.40;;;7.60;;
46266;SDS011;31998;48.798;15.066;2023-06-10T07:02:13;9.20;;;8.33;;
46266;SDS011;31998;48.798;15.066;2023-06-10T07:04:38;8.93;;;8.30;;
46266;SDS011;31998;48.798;15.066;2023-06-10T07:07:06;7.50;;;7.10;;
46266;SDS011;31998;48.798;15.066;2023-06-10T07:09:32;8.70;;;8.10;;
46266;SDS011;31998;48.798;15.066;2023-06-10T07:11:57;9.20;;;8.50;;
46266;SDS011;31998;48.798;15.066;2023-06-10T07:14:22;9.33;;;8.80;;
46266;SDS011;31998;48.798;15.066;2023-06-10T07:16:47;9.10;;;8.60;;
46266;SDS011;31998;48.798;15.066;2023-06-10T07:19:13;8.80;;;8.30;;
46266;SDS011;31998;48.798;15.066;2023-06-10T07:21:38;10.97;;;8.27;;
46266;SDS011;31998;48.798;15.066;2023-06-10T07:24:04;9.40;;;8.77;;
46266;SDS011;31998;48.798;15.066;2023-06-10T07:26:30;8.50;;;7.70;;
46266;SDS011;31998;48.798;15.066;2023-06-10T07:28:56;8.80;;;8.30;;
46266;SDS011;31998;48.798;15.066;2023-06-10T07:31:21;9.97;;;9.20;;
46266;SDS011;31998;48.798;15.066;2023-06-10T07:33:46;8.90;;;8.23;;
46266;SDS011;31998;48.798;15.066;2023-06-10T07:36:11;9.80;;;9.00;;
46266;SDS011;31998;48.798;15.066;2023-06-10T07:38:37;9.90;;;9.27;;
46266;SDS011;31998;48.798;15.066;2023-06-10T07:41:02;9.70;;;9.00;;
46266;SDS011;31998;48.798;15.066;2023-06-10T07:43:27;10.17;;;9.20;;
46266;SDS011;31998;48.798;15.066;2023-06-10T07:45:52;12.10;;;9.63;;
46266;SDS011;31998;48.798;15.066;2023-06-10T07:48:18;8.87;;;8.37;;
46266;SDS011;31998;48.798;15.066;2023-06-10T07:50:43;9.20;;;8.70;;
46266;SDS011;31998;48.798;15.066;2023-06-10T07:53:08;8.90;;;8.40;;
46266;SDS011;31998;48.798;15.066;2023-06-10T07:55:34;9.03;;;8.33;;
46266;SDS011;31998;48.798;15.066;2023-06-10T07:57:59;8.83;;;8.33;;
46266;SDS011;31998;48.798;15.066;2023-06-10T08:00:24;11.90;;;8.23;;
46266;SDS011;31998;48.798;15.066;2023-06-10T08:02:49;8.93;;;8.33;;
46266;SDS011;31998;48.798;15.066;2023-06-10T08:05:15;9.37;;;8.57;;
46266;SDS011;31998;48.798;15.066;2023-06-10T08:07:41;8.43;;;7.90;;
46266;SDS011;31998;48.798;15.066;2023-06-10T08:10:06;7.93;;;7.53;;
46266;SDS011;31998;48.798;15.066;2023-06-10T08:12:32;8.93;;;8.23;;
46266;SDS011;31998;48.798;15.066;2023-06-10T08:14:57;8.20;;;7.80;;
46266;SDS011;31998;48.798;15.066;2023-06-10T08:17:23;8.27;;;7.53;;
46266;SDS011;31998;48.798;15.066;2023-06-10T08:19:49;8.20;;;7.80;;
46266;SDS011;31998;48.798;15.066;2023-06-10T08:22:14;9.90;;;9.30;;
46266;SDS011;31998;48.798;15.066;2023-06-10T08:24:39;10.50;;;9.20;;
46266;SDS011;31998;48.798;15.066;2023-06-10T08:27:05;8.83;;;8.23;;
46266;SDS011;31998;48.798;15.066;2023-06-10T08:29:31;9.47;;;8.83;;
46266;SDS011;31998;48.798;15.066;2023-06-10T08:31:57;9.60;;;8.77;;
46266;SDS011;31998;48.798;15.066;2023-06-10T08:34:22;8.83;;;8.13;;
46266;SDS011;31998;48.798;15.066;2023-06-10T08:36:47;14.67;;;8.40;;
46266;SDS011;31998;48.798;15.066;2023-06-10T08:39:17;8.40;;;7.90;;
46266;SDS011;31998;48.798;15.066;2023-06-10T08:41:43;9.90;;;9.07;;
46266;SDS011;31998;48.798;15.066;2023-06-10T08:44:10;9.50;;;8.90;;
46266;SDS011;31998;48.798;15.066;2023-06-10T08:46:37;9.30;;;8.53;;
46266;SDS011;31998;48.798;15.066;2023-06-10T08:49:03;10.00;;;9.20;;
46266;SDS011;31998;48.798;15.066;2023-06-10T08:51:30;11.73;;;10.63;;
46266;SDS011;31998;48.798;15.066;2023-06-10T08:54:04;10.10;;;9.50;;
46266;SDS011;31998;48.798;15.066;2023-06-10T08:56:30;10.13;;;9.40;;
46266;SDS011;31998;48.798;15.066;2023-06-10T08:58:58;11.53;;;10.43;;
46266;SDS011;31998;48.798;15.066;2023-06-10T09:01:24;10.83;;;9.13;;
46266;SDS011;31998;48.798;15.066;2023-06-10T09:03:50;9.03;;;8.43;;
46266;SDS011;31998;48.798;15.066;2023-06-10T09:06:16;9.10;;;8.20;;
46266;SDS011;31998;48.798;15.066;2023-06-10T09:08:41;8.37;;;7.87;;
46266;SDS011;31998;48.798;15.066;2023-06-10T09:11:07;8.27;;;7.77;;
46266;SDS011;31998;48.798;15.066;2023-06-10T09:13:32;8.73;;;8.23;;
46266;SDS011;31998;48.798;15.066;2023-06-10T09:15:57;8.40;;;7.80;;
46266;SDS011;31998;48.798;15.066;2023-06-10T09:18:26;8.80;;;8.10;;
46266;SDS011;31998;48.798;15.066;2023-06-10T09:20:51;8.80;;;8.30;;
46266;SDS011;31998;48.798;15.066;2023-06-10T09:23:16;9.50;;;8.90;;
46266;SDS011;31998;48.798;15.066;2023-06-10T09:25:42;8.57;;;8.07;;
46266;SDS011;31998;48.798;15.066;2023-06-10T09:28:14;9.20;;;8.60;;
46266;SDS011;31998;48.798;15.066;2023-06-10T09:30:40;9.10;;;8.50;;
46266;SDS011;31998;48.798;15.066;2023-06-10T09:33:14;11.77;;;8.67;;
46266;SDS011;31998;48.798;15.066;2023-06-10T09:35:46;7.90;;;7.53;;
46266;SDS011;31998;48.798;15.066;2023-06-10T09:38:13;15.33;;;9.30;;
46266;SDS011;31998;48.798;15.066;2023-06-10T09:43:40;10.03;;;9.00;;
46266;SDS011;31998;48.798;15.066;2023-06-10T09:46:05;9.23;;;8.60;;
46266;SDS011;31998;48.798;15.066;2023-06-10T09:48:34;8.70;;;8.20;;
46266;SDS011;31998;48.798;15.066;2023-06-10T09:50:59;8.13;;;7.63;;
46266;SDS011;31998;48.798;15.066;2023-06-10T09:53:24;10.00;;;9.20;;
46266;SDS011;31998;48.798;15.066;2023-06-10T09:55:51;10.03;;;8.63;;
46266;SDS011;31998;48.798;15.066;2023-06-10T09:58:16;10.23;;;9.50;;
46266;SDS011;31998;48.798;15.066;2023-06-10T10:00:42;10.30;;;9.60;;
46266;SDS011;31998;48.798;15.066;2023-06-10T10:03:07;10.47;;;9.57;;
46266;SDS011;31998;48.798;15.066;2023-06-10T10:05:32;11.93;;;10.70;;
46266;SDS011;31998;48.798;15.066;2023-06-10T10:07:57;11.87;;;10.97;;
46266;SDS011;31998;48.798;15.066;2023-06-10T10:10:23;11.63;;;10.67;;
46266;SDS011;31998;48.798;15.066;2023-06-10T10:12:50;10.30;;;9.70;;
46266;SDS011;31998;48.798;15.066;2023-06-10T10:15:17;10.70;;;9.90;;
46266;SDS011;31998;48.798;15.066;2023-06-10T10:20:27;11.37;;;10.43;;
46266;SDS011;31998;48.798;15.066;2023-06-10T10:22:55;11.17;;;10.40;;
46266;SDS011;31998;48.798;15.066;2023-06-10T10:25:26;11.30;;;10.13;;
46266;SDS011;31998;48.798;15.066;2023-06-10T10:28:02;11.37;;;10.67;;
46266;SDS011;31998;48.798;15.066;2023-06-10T10:30:31;16.60;;;10.57;;
46266;SDS011;31998;48.798;15.066;2023-06-10T10:32:59;19.97;;;12.60;;
46266;SDS011;31998;48.798;15.066;2023-06-10T10:35:26;20.17;;;13.60;;
46266;SDS011;31998;48.798;15.066;2023-06-10T10:37:52;17.13;;;15.43;;
46266;SDS011;31998;48.798;15.066;2023-06-10T10:40:17;23.20;;;20.00;;
46266;SDS011;31998;48.798;15.066;2023-06-10T10:42:43;22.87;;;19.90;;
46266;SDS011;31998;48.798;15.066;2023-06-10T10:45:09;22.47;;;20.20;;
46266;SDS011;31998;48.798;15.066;2023-06-10T10:47:35;23.20;;;20.10;;
46266;SDS011;31998;48.798;15.066;2023-06-10T10:50:00;23.53;;;21.23;;
46266;SDS011;31998;48.798;15.066;2023-06-10T10:52:26;24.73;;;21.67;;
46266;SDS011;31998;48.798;15.066;2023-06-10T10:54:52;22.50;;;20.40;;
46266;SDS011;31998;48.798;15.066;2023-06-10T10:57:19;32.53;;;26.80;;
46266;SDS011;31998;48.798;15.066;2023-06-10T10:59:57;32.50;;;26.63;;
46266;SDS011;31998;48.798;15.066;2023-06-10T11:02:33;29.97;;;26.60;;
46266;SDS011;31998;48.798;15.066;2023-06-10T11:04:58;31.80;;;28.50;;
46266;SDS011;31998;48.798;15.066;2023-06-10T11:07:25;30.43;;;26.87;;
46266;SDS011;31998;48.798;15.066;2023-06-10T11:15:33;31.27;;;28.10;;
46266;SDS011;31998;48.798;15.066;2023-06-10T11:26:10;21.50;;;19.70;;
46266;SDS011;31998;48.798;15.066;2023-06-10T11:28:36;22.90;;;20.50;;
46266;SDS011;31998;48.798;15.066;2023-06-10T11:31:01;21.63;;;19.50;;
46266;SDS011;31998;48.798;15.066;2023-06-10T11:33:26;21.87;;;20.03;;
46266;SDS011;31998;48.798;15.066;2023-06-10T11:35:52;24.03;;;21.57;;
46266;SDS011;31998;48.798;15.066;2023-06-10T11:38:18;22.37;;;20.40;;
46266;SDS011;31998;48.798;15.066;2023-06-10T11:40:50;24.47;;;21.87;;
46266;SDS011;31998;48.798;15.066;2023-06-10T11:43:18;25.43;;;21.90;;
46266;SDS011;31998;48.798;15.066;2023-06-10T11:45:44;29.03;;;26.33;;
46266;SDS011;31998;48.798;15.066;2023-06-10T11:48:09;33.07;;;29.83;;
46266;SDS011;31998;48.798;15.066;2023-06-10T11:50:34;32.50;;;28.30;;
46266;SDS011;31998;48.798;15.066;2023-06-10T11:53:00;28.00;;;22.07;;
46266;SDS011;31998;48.798;15.066;2023-06-10T11:55:39;25.50;;;23.13;;
46266;SDS011;31998;48.798;15.066;2023-06-10T11:58:04;25.73;;;22.63;;
46266;SDS011;31998;48.798;15.066;2023-06-10T12:00:30;24.53;;;22.13;;
46266;SDS011;31998;48.798;15.066;2023-06-10T12:02:58;25.10;;;22.67;;
46266;SDS011;31998;48.798;15.066;2023-06-10T12:05:23;24.67;;;22.40;;
46266;SDS011;31998;48.798;15.066;2023-06-10T12:07:48;27.47;;;24.87;;
46266;SDS011;31998;48.798;15.066;2023-06-10T12:10:13;25.87;;;23.57;;
46266;SDS011;31998;48.798;15.066;2023-06-10T12:12:39;25.37;;;23.17;;
46266;SDS011;31998;48.798;15.066;2023-06-10T12:15:06;25.77;;;23.50;;
46266;SDS011;31998;48.798;15.066;2023-06-10T12:20:02;24.70;;;21.57;;
46266;SDS011;31998;48.798;15.066;2023-06-10T12:25:03;17.43;;;16.13;;
46266;SDS011;31998;48.798;15.066;2023-06-10T12:27:29;18.37;;;16.43;;
46266;SDS011;31998;48.798;15.066;2023-06-10T12:29:55;15.67;;;14.10;;
46266;SDS011;31998;48.798;15.066;2023-06-10T12:32:22;17.43;;;15.70;;
46266;SDS011;31998;48.798;15.066;2023-06-10T12:35:03;13.37;;;12.37;;
46266;SDS011;31998;48.798;15.066;2023-06-10T12:37:29;13.70;;;12.50;;
46266;SDS011;31998;48.798;15.066;2023-06-10T12:39:55;14.03;;;12.93;;
46266;SDS011;31998;48.798;15.066;2023-06-10T12:42:22;14.47;;;13.03;;
46266;SDS011;31998;48.798;15.066;2023-06-10T12:44:47;14.77;;;13.60;;
46266;SDS011;31998;48.798;15.066;2023-06-10T12:47:17;16.67;;;15.23;;
46266;SDS011;31998;48.798;15.066;2023-06-10T12:49:43;16.70;;;15.23;;
46266;SDS011;31998;48.798;15.066;2023-06-10T12:52:08;16.23;;;14.63;;
46266;SDS011;31998;48.798;15.066;2023-06-10T12:54:33;17.23;;;15.93;;
46266;SDS011;31998;48.798;15.066;2023-06-10T12:56:59;15.93;;;14.50;;
46266;SDS011;31998;48.798;15.066;2023-06-10T12:59:24;15.53;;;14.33;;
46266;SDS011;31998;48.798;15.066;2023-06-10T13:01:58;21.67;;;16.67;;
46266;SDS011;31998;48.798;15.066;2023-06-10T13:04:24;17.13;;;15.73;;
46266;SDS011;31998;48.798;15.066;2023-06-10T13:06:49;17.00;;;15.50;;
46266;SDS011;31998;48.798;15.066;2023-06-10T13:09:14;17.90;;;16.10;;
46266;SDS011;31998;48.798;15.066;2023-06-10T13:11:40;7.97;;;7.47;;
46266;SDS011;31998;48.798;15.066;2023-06-10T13:14:05;5.80;;;5.40;;
46266;SDS011;31998;48.798;15.066;2023-06-10T13:16:31;5.57;;;5.17;;
46266;SDS011;31998;48.798;15.066;2023-06-10T13:18:57;4.53;;;4.33;;
46266;SDS011;31998;48.798;15.066;2023-06-10T13:21:22;5.30;;;5.00;;
46266;SDS011;31998;48.798;15.066;2023-06-10T13:23:47;5.53;;;4.57;;
46266;SDS011;31998;48.798;15.066;2023-06-10T13:26:13;6.17;;;5.57;;
46266;SDS011;31998;48.798;15.066;2023-06-10T13:28:38;6.23;;;5.83;;
46266;SDS011;31998;48.798;15.066;2023-06-10T13:31:04;6.20;;;5.70;;
46266;SDS011;31998;48.798;15.066;2023-06-10T13:33:29;7.90;;;7.50;;
46266;SDS011;31998;48.798;15.066;2023-06-10T13:35:54;7.57;;;6.57;;
46266;SDS011;31998;48.798;15.066;2023-06-10T13:38:19;9.80;;;7.77;;
46266;SDS011;31998;48.798;15.066;2023-06-10T13:40:45;9.30;;;7.77;;
46266;SDS011;31998;48.798;15.066;2023-06-10T13:43:10;7.93;;;7.23;;
46266;SDS011;31998;48.798;15.066;2023-06-10T13:45:36;8.80;;;7.97;;
46266;SDS011;31998;48.798;15.066;2023-06-10T13:48:01;9.83;;;8.83;;
46266;SDS011;31998;48.798;15.066;2023-06-10T13:50:29;11.10;;;9.37;;
46266;SDS011;31998;48.798;15.066;2023-06-10T13:52:54;12.30;;;11.07;;
46266;SDS011;31998;48.798;15.066;2023-06-10T13:55:19;19.90;;;11.97;;
46266;SDS011;31998;48.798;15.066;2023-06-10T13:57:45;15.60;;;13.93;;
46266;SDS011;31998;48.798;15.066;2023-06-10T14:00:11;25.33;;;16.17;;
46266;SDS011;31998;48.798;15.066;2023-06-10T14:02:36;17.50;;;15.53;;
46266;SDS011;31998;48.798;15.066;2023-06-10T14:05:02;22.93;;;16.30;;
46266;SDS011;31998;48.798;15.066;2023-06-10T14:07:27;21.77;;;17.20;;
46266;SDS011;31998;48.798;15.066;2023-06-10T14:09:53;23.47;;;18.63;;
46266;SDS011;31998;48.798;15.066;2023-06-10T14:12:18;17.87;;;16.07;;
46266;SDS011;31998;48.798;15.066;2023-06-10T14:14:43;23.33;;;16.50;;
46266;SDS011;31998;48.798;15.066;2023-06-10T14:17:08;19.73;;;16.53;;
46266;SDS011;31998;48.798;15.066;2023-06-10T14:19:34;21.23;;;17.40;;
46266;SDS011;31998;48.798;15.066;2023-06-10T14:21:59;24.40;;;17.80;;
46266;SDS011;31998;48.798;15.066;2023-06-10T14:24:24;15.60;;;14.17;;
46266;SDS011;31998;48.798;15.066;2023-06-10T14:26:49;17.03;;;14.80;;
46266;SDS011;31998;48.798;15.066;2023-06-10T14:29:15;22.07;;;15.60;;
46266;SDS011;31998;48.798;15.066;2023-06-10T14:31:40;20.03;;;16.30;;
46266;SDS011;31998;48.798;15.066;2023-06-10T14:34:05;20.00;;;16.67;;